Time;durP1;ratioP1;P1;durP2;ratioP2;P2;SDS_P1;SDS_P2;PMS_P1;PMS_P2;Temp;Humidity;BMP_temperature;BMP_pressure;BME280_temperature;BME280_humidity;BME280_pressure;Samples;Min_cycle;Max_cycle;Signal;HPM_P1;HPM_P2
2022/12/10 00:01:16;;;;;;;43.63;13.73;;;1.00;99.90;;;;;;4984106;28;20383;-38
2022/12/10 00:03:43;;;;;;;32.75;14.27;;;1.10;99.90;;;;;;4989540;28;20467;-36
2022/12/10 00:06:12;;;;;;;41.70;15.27;;;1.00;99.90;;;;;;4987884;28;20038;-36
2022/12/10 00:08:38;;;;;;;34.22;14.13;;;1.10;99.90;;;;;;4988824;28;20538;-37
2022/12/10 00:11:06;;;;;;;31.60;14.13;;;1.20;99.90;;;;;;4984882;28;20117;-37
2022/12/10 00:13:33;;;;;;;29.67;13.57;;;1.20;99.90;;;;;;4988206;28;20640;-40
2022/12/10 00:16:00;;;;;;;35.53;12.98;;;1.10;99.90;;;;;;4988933;28;20037;-37
2022/12/10 00:18:25;;;;;;;29.73;14.52;;;1.20;99.90;;;;;;4989175;28;20102;-37
2022/12/10 00:20:51;;;;;;;30.02;12.80;;;1.20;99.90;;;;;;4986937;28;20109;-36
2022/12/10 00:23:17;;;;;;;27.20;12.02;;;1.20;99.90;;;;;;4989580;28;20302;-35
2022/12/10 00:25:42;;;;;;;27.95;12.82;;;1.10;99.90;;;;;;4987195;28;20053;-33
2022/12/10 00:28:08;;;;;;;31.77;15.07;;;1.10;99.90;;;;;;4982007;28;20037;-37
2022/12/10 00:30:34;;;;;;;29.63;14.00;;;1.10;99.90;;;;;;4986619;28;20503;-38
2022/12/10 00:32:59;;;;;;;27.88;13.40;;;1.10;99.90;;;;;;4986707;28;20062;-38
2022/12/10 00:35:25;;;;;;;26.65;13.30;;;1.10;99.90;;;;;;4986278;28;20030;-37
2022/12/10 00:37:50;;;;;;;29.35;12.38;;;1.10;99.90;;;;;;4983448;28;20030;-34
2022/12/10 00:40:16;;;;;;;25.83;10.65;;;1.20;99.90;;;;;;4982899;28;20026;-35
2022/12/10 00:42:42;;;;;;;28.80;13.10;;;1.20;99.90;;;;;;4984548;28;20026;-36
2022/12/10 00:45:08;;;;;;;25.48;12.50;;;1.20;99.90;;;;;;4988333;28;20038;-36
2022/12/10 00:47:33;;;;;;;28.90;12.07;;;1.20;99.90;;;;;;4987052;28;20034;-36
2022/12/10 00:49:59;;;;;;;27.17;11.45;;;1.10;99.90;;;;;;4986014;28;20038;-38
2022/12/10 00:52:24;;;;;;;26.50;12.80;;;1.20;99.90;;;;;;4986759;28;20034;-37
2022/12/10 00:54:50;;;;;;;25.27;12.45;;;1.10;99.90;;;;;;4984296;28;20129;-36
2022/12/10 00:57:16;;;;;;;25.85;12.25;;;1.10;99.90;;;;;;4981366;28;20034;-34
2022/12/10 00:59:41;;;;;;;31.02;13.00;;;1.10;99.90;;;;;;4985521;28;20146;-35
2022/12/10 01:02:07;;;;;;;26.75;13.07;;;1.10;99.90;;;;;;4982664;28;20034;-36
2022/12/10 01:04:33;;;;;;;29.95;13.50;;;1.00;99.90;;;;;;4984624;28;20551;-38
2022/12/10 01:06:59;;;;;;;29.67;13.38;;;1.00;99.90;;;;;;4979800;28;20081;-34
2022/12/10 01:09:29;;;;;;;27.52;12.93;;;1.10;99.90;;;;;;5001000;28;20046;-38
2022/12/10 01:11:57;;;;;;;30.65;13.63;;;1.00;99.90;;;;;;4980510;28;20038;-36
2022/12/10 01:14:29;;;;;;;25.55;12.13;;;1.00;99.90;;;;;;4978344;28;20454;-33
2022/12/10 01:17:02;;;;;;;28.92;13.63;;;1.00;99.90;;;;;;4982591;28;20031;-38
2022/12/10 01:19:29;;;;;;;30.30;14.27;;;1.00;99.90;;;;;;4987739;28;20035;-36
2022/12/10 01:21:55;;;;;;;30.13;14.32;;;1.00;99.90;;;;;;4982244;28;20039;-37
2022/12/10 01:24:23;;;;;;;33.03;15.27;;;0.90;99.90;;;;;;4980135;28;20500;-36
2022/12/10 01:26:49;;;;;;;31.35;14.25;;;0.90;99.90;;;;;;4982335;28;20400;-34
2022/12/10 01:29:14;;;;;;;31.50;13.43;;;0.80;99.90;;;;;;4981745;28;20032;-36
2022/12/10 01:31:40;;;;;;;28.52;14.20;;;0.80;99.90;;;;;;4981811;28;20034;-35
2022/12/10 01:34:09;;;;;;;31.52;15.00;;;0.80;99.90;;;;;;4983905;28;20041;-36
2022/12/10 01:36:37;;;;;;;;;;;0.90;99.90;;;;;;4985090;28;20038;-38
2022/12/10 01:39:05;;;;;;;26.23;13.30;;;0.80;99.90;;;;;;4984134;28;19918;-36
2022/12/10 01:41:37;;;;;;;29.80;13.00;;;0.80;99.90;;;;;;4984818;28;20030;-33
2022/12/10 01:44:25;;;;;;;32.78;13.98;;;0.80;99.90;;;;;;4986275;28;20388;-37
2022/12/10 01:46:57;;;;;;;29.65;15.05;;;0.70;99.90;;;;;;4986382;28;20039;-30
2022/12/10 01:49:44;;;;;;;29.00;14.13;;;0.70;99.90;;;;;;4988418;28;20030;-37
2022/12/10 01:52:12;;;;;;;27.60;13.65;;;0.70;99.90;;;;;;4986013;28;20411;-38
2022/12/10 01:54:42;;;;;;;24.80;13.00;;;0.80;99.90;;;;;;4986356;28;20038;-38
2022/12/10 01:57:12;;;;;;;27.27;14.05;;;0.80;99.90;;;;;;4984406;28;20070;-35
2022/12/10 01:59:39;;;;;;;31.20;14.73;;;0.80;99.90;;;;;;4980642;28;20365;-37
2022/12/10 02:02:04;;;;;;;27.50;13.57;;;0.80;99.90;;;;;;4980973;28;20137;-38
2022/12/10 02:04:45;;;;;;;28.15;13.65;;;0.70;99.90;;;;;;4985148;28;20442;-38
2022/12/10 02:07:27;;;;;;;23.95;12.85;;;0.80;99.90;;;;;;4984394;28;20180;-36
2022/12/10 02:10:16;;;;;;;31.33;13.30;;;0.90;99.90;;;;;;4997866;28;20038;-30
2022/12/10 02:12:42;;;;;;;24.65;12.23;;;0.80;99.90;;;;;;4981601;28;20041;-37
2022/12/10 02:15:08;;;;;;;28.60;14.95;;;0.80;99.90;;;;;;4984559;28;20488;-38
2022/12/10 02:18:11;;;;;;;23.90;13.25;;;0.80;99.90;;;;;;4984244;28;20030;-37
2022/12/10 02:20:46;;;;;;;27.05;13.40;;;0.90;99.90;;;;;;4984587;28;20042;-37
2022/12/10 02:23:17;;;;;;;26.20;13.13;;;0.80;99.90;;;;;;4980827;28;20044;-37
2022/12/10 02:26:08;;;;;;;29.42;12.00;;;0.80;99.90;;;;;;4978359;28;20709;-35
2022/12/10 02:28:39;;;;;;;25.70;13.35;;;0.80;99.90;;;;;;4984366;28;20502;-35
2022/12/10 02:31:06;;;;;;;24.27;12.63;;;0.80;99.90;;;;;;4978628;28;20094;-36
2022/12/10 02:33:37;;;;;;;24.45;12.73;;;0.80;99.90;;;;;;4987603;28;20046;-35
2022/12/10 02:36:04;;;;;;;23.38;12.88;;;0.80;99.90;;;;;;4979194;28;20030;-38
2022/12/10 02:38:35;;;;;;;26.55;14.30;;;0.80;99.90;;;;;;4983215;28;20026;-38
2022/12/10 02:41:08;;;;;;;28.63;12.82;;;0.80;99.90;;;;;;4985554;28;20092;-38
2022/12/10 02:43:34;;;;;;;25.00;13.90;;;0.70;99.90;;;;;;5002048;28;20034;-33
2022/12/10 02:46:03;;;;;;;25.33;12.50;;;0.70;99.90;;;;;;4991494;28;20034;-38
2022/12/10 02:48:29;;;;;;;26.83;14.02;;;0.70;99.90;;;;;;4986746;28;20031;-38
2022/12/10 02:50:55;;;;;;;26.60;13.18;;;0.70;99.90;;;;;;4988196;28;20026;-38
2022/12/10 02:53:20;;;;;;;25.35;14.52;;;0.70;99.90;;;;;;4987892;28;20396;-30
2022/12/10 02:56:15;;;;;;;26.60;13.65;;;0.60;99.90;;;;;;4987800;28;20065;-36
2022/12/10 02:59:12;;;;;;;27.77;13.63;;;0.70;99.90;;;;;;4981711;28;20254;-38
2022/12/10 03:01:43;;;;;;;33.10;14.75;;;0.60;99.90;;;;;;4985446;28;20046;-36
2022/12/10 03:04:37;;;;;;;24.40;12.15;;;0.60;99.90;;;;;;4980405;28;20034;-38
2022/12/10 03:07:10;;;;;;;24.55;13.55;;;0.70;99.90;;;;;;4987684;28;20054;-36
2022/12/10 03:09:47;;;;;;;27.77;13.38;;;0.60;99.90;;;;;;4986606;28;20125;-38
2022/12/10 03:12:37;;;;;;;26.92;12.75;;;0.60;99.90;;;;;;4986736;28;20085;-37
2022/12/10 03:15:08;;;;;;;21.38;11.80;;;0.60;99.90;;;;;;4985831;28;20030;-37
2022/12/10 03:17:36;;;;;;;26.63;12.93;;;0.60;99.90;;;;;;4988387;28;20034;-38
2022/12/10 03:20:03;;;;;;;28.67;14.38;;;0.60;99.90;;;;;;4982641;28;20129;-38
2022/12/10 03:22:31;;;;;;;24.73;13.18;;;0.60;99.90;;;;;;4987630;28;20113;-37
2022/12/10 03:24:58;;;;;;;27.63;14.05;;;0.60;99.90;;;;;;4987365;28;20456;-33
2022/12/10 03:27:24;;;;;;;25.05;13.45;;;0.60;99.90;;;;;;4982432;28;20042;-37
2022/12/10 03:29:54;;;;;;;29.17;13.73;;;0.60;99.90;;;;;;5003346;28;20028;-38
2022/12/10 03:32:22;;;;;;;25.52;14.23;;;0.60;99.90;;;;;;4984344;28;20034;-38
2022/12/10 03:34:51;;;;;;;24.92;12.23;;;0.60;99.90;;;;;;4989181;28;20054;-36
2022/12/10 03:37:16;;;;;;;;;;;0.60;99.90;;;;;;4987038;28;20030;-36
2022/12/10 03:39:42;;;;;;;26.30;12.30;;;0.60;99.90;;;;;;4988527;28;19920;-37
2022/12/10 03:42:08;;;;;;;28.92;13.90;;;0.60;99.90;;;;;;4984485;28;20034;-32
2022/12/10 03:44:36;;;;;;;25.48;13.60;;;0.60;99.90;;;;;;4985498;28;20041;-38
2022/12/10 03:47:04;;;;;;;21.02;12.52;;;0.60;99.90;;;;;;4988835;28;20549;-36
2022/12/10 03:49:30;;;;;;;21.92;11.90;;;0.60;99.90;;;;;;4988001;28;20027;-38
2022/12/10 03:51:56;;;;;;;23.10;11.50;;;0.60;99.90;;;;;;4985984;28;20050;-36
2022/12/10 03:54:22;;;;;;;26.33;12.85;;;0.60;99.90;;;;;;4985491;28;20027;-33
2022/12/10 03:56:48;;;;;;;20.95;12.13;;;0.70;99.90;;;;;;4988510;28;20113;-38
2022/12/10 03:59:13;;;;;;;25.17;12.15;;;0.70;99.90;;;;;;4984106;28;20452;-31
2022/12/10 04:01:40;;;;;;;27.23;14.25;;;0.60;99.90;;;;;;4987549;28;20041;-38
2022/12/10 04:04:06;;;;;;;25.00;13.38;;;0.60;99.90;;;;;;4988227;28;20031;-38
2022/12/10 04:06:31;;;;;;;24.92;14.32;;;0.60;99.90;;;;;;4983811;28;20046;-36
2022/12/10 04:08:57;;;;;;;29.75;13.15;;;0.60;99.90;;;;;;4982415;28;20088;-32
2022/12/10 04:11:23;;;;;;;28.38;14.35;;;0.60;99.90;;;;;;4981679;28;20030;-38
2022/12/10 04:16:34;;;;;;;27.48;13.60;;;0.60;99.90;;;;;;4981163;28;20523;-39
2022/12/10 04:19:04;;;;;;;26.67;12.98;;;0.50;99.90;;;;;;4983779;28;20026;-38
2022/12/10 04:27:07;;;;;;;22.90;11.63;;;0.50;99.90;;;;;;4978603;28;20109;-38
2022/12/10 04:29:33;;;;;;;23.63;12.07;;;0.60;99.90;;;;;;4985755;28;20138;-34
2022/12/10 04:31:59;;;;;;;23.08;11.98;;;0.60;99.90;;;;;;4986112;28;20125;-37
2022/12/10 04:34:25;;;;;;;28.90;13.70;;;0.60;99.90;;;;;;4984084;28;20523;-37
2022/12/10 04:36:51;;;;;;;20.60;11.73;;;0.60;99.90;;;;;;4980612;28;20027;-29
2022/12/10 04:39:17;;;;;;;25.77;12.82;;;0.60;99.90;;;;;;4985297;28;21310;-35
2022/12/10 04:41:44;;;;;;;28.17;13.20;;;0.60;99.90;;;;;;4985562;28;20030;-38
2022/12/10 04:44:10;;;;;;;22.40;11.80;;;0.60;99.90;;;;;;4982926;28;20042;-35
2022/12/10 04:46:36;;;;;;;24.75;13.18;;;0.60;99.90;;;;;;5002841;28;20045;-33
2022/12/10 04:49:03;;;;;;;22.38;12.48;;;0.60;99.90;;;;;;4983217;28;20038;-35
2022/12/10 04:51:29;;;;;;;30.10;13.80;;;0.60;99.90;;;;;;4984454;28;20022;-33
2022/12/10 04:53:55;;;;;;;22.13;12.70;;;0.60;99.90;;;;;;4984000;28;20472;-38
2022/12/10 04:56:21;;;;;;;24.88;13.15;;;0.60;99.90;;;;;;4983599;28;20044;-38
2022/12/10 04:58:46;;;;;;;21.95;11.18;;;0.60;99.90;;;;;;4985891;28;20041;-35
2022/12/10 05:01:12;;;;;;;25.45;12.27;;;0.60;99.90;;;;;;4987417;28;20408;-35
2022/12/10 05:03:38;;;;;;;25.42;13.18;;;0.60;99.90;;;;;;4984746;28;20089;-36
2022/12/10 05:06:10;;;;;;;26.52;11.48;;;0.60;99.90;;;;;;4984538;28;20487;-37
2022/12/10 05:08:38;;;;;;;23.08;12.07;;;0.60;99.90;;;;;;4982304;28;20058;-34
2022/12/10 05:11:10;;;;;;;27.07;12.70;;;0.60;99.90;;;;;;4980997;28;20097;-38
2022/12/10 05:13:36;;;;;;;29.20;14.07;;;0.60;99.90;;;;;;4983544;28;20054;-38
2022/12/10 05:16:03;;;;;;;22.33;11.25;;;0.60;99.90;;;;;;4984789;28;20521;-38
2022/12/10 05:18:30;;;;;;;21.80;12.07;;;0.60;99.90;;;;;;4985108;28;20022;-38
2022/12/10 05:20:58;;;;;;;21.10;13.25;;;0.60;99.90;;;;;;4984335;28;20030;-38
2022/12/10 05:23:30;;;;;;;;;;;0.60;99.90;;;;;;4986473;28;20311;-39
2022/12/10 05:26:24;;;;;;;21.70;11.05;;;0.50;99.90;;;;;;4981104;28;20378;-37
2022/12/10 05:28:55;;;;;;;22.23;12.32;;;0.50;99.90;;;;;;4974929;28;20097;-37
2022/12/10 05:31:23;;;;;;;24.70;11.98;;;0.50;99.90;;;;;;4986859;28;20038;-35
2022/12/10 05:33:49;;;;;;;24.30;13.48;;;0.50;99.90;;;;;;4982507;28;20026;-33
2022/12/10 05:36:17;;;;;;;24.10;12.90;;;0.50;99.90;;;;;;4983532;28;20590;-42
2022/12/10 05:38:43;;;;;;;29.60;12.55;;;0.50;99.90;;;;;;4986098;28;20025;-33
2022/12/10 05:41:15;;;;;;;32.03;13.65;;;0.50;99.90;;;;;;4981600;28;20256;-38
2022/12/10 05:43:42;;;;;;;25.48;12.55;;;0.50;99.90;;;;;;4979327;28;20034;-36
2022/12/10 05:46:12;;;;;;;20.77;12.07;;;0.50;99.90;;;;;;4984197;28;20067;-37
2022/12/10 05:48:38;;;;;;;23.10;11.43;;;0.60;99.90;;;;;;4982952;28;20045;-37
2022/12/10 05:51:08;;;;;;;25.77;11.77;;;0.60;99.90;;;;;;4985603;28;20035;-37
2022/12/10 05:53:34;;;;;;;26.52;13.15;;;0.50;99.90;;;;;;4985302;28;20080;-37
2022/12/10 05:56:02;;;;;;;23.45;12.25;;;0.60;99.90;;;;;;4997165;28;20038;-36
2022/12/10 05:58:29;;;;;;;22.63;12.30;;;0.60;99.90;;;;;;4983539;28;20022;-38
2022/12/10 06:00:56;;;;;;;19.55;11.85;;;0.60;99.90;;;;;;4982095;28;20038;-37
2022/12/10 06:03:21;;;;;;;25.17;11.98;;;0.60;99.90;;;;;;4984553;28;20045;-36
2022/12/10 06:05:47;;;;;;;26.80;13.38;;;0.60;99.90;;;;;;4977027;28;20442;-37
2022/12/10 06:08:13;;;;;;;21.10;12.45;;;0.60;99.90;;;;;;4994600;28;20538;-33
2022/12/10 06:10:38;;;;;;;23.35;11.68;;;0.60;99.90;;;;;;4982991;28;20041;-36
2022/12/10 06:13:04;;;;;;;25.02;12.75;;;0.60;99.90;;;;;;4981295;28;20039;-38
2022/12/10 06:15:31;;;;;;;26.70;14.27;;;0.60;99.90;;;;;;4981332;28;20030;-37
2022/12/10 06:17:57;;;;;;;27.83;13.50;;;0.60;99.90;;;;;;4986370;28;20045;-35
2022/12/10 06:20:23;;;;;;;25.17;12.05;;;0.60;99.90;;;;;;4990164;28;20022;-36
2022/12/10 06:22:49;;;;;;;27.80;13.75;;;0.60;99.90;;;;;;4987569;28;20045;-37
2022/12/10 06:25:15;;;;;;;24.73;13.65;;;0.60;99.90;;;;;;4985626;28;20398;-29
2022/12/10 06:27:40;;;;;;;26.95;14.15;;;0.60;99.90;;;;;;4980692;28;20045;-37
2022/12/10 06:30:07;;;;;;;23.92;12.90;;;0.60;99.90;;;;;;4987967;28;20034;-35
2022/12/10 06:32:32;;;;;;;27.83;12.45;;;0.60;99.90;;;;;;4985744;28;20146;-38
2022/12/10 06:34:58;;;;;;;32.42;14.77;;;0.60;99.90;;;;;;4986986;28;20109;-32
2022/12/10 06:37:24;;;;;;;25.70;12.63;;;0.60;99.90;;;;;;4987338;28;20030;-38
2022/12/10 06:39:52;;;;;;;24.17;11.95;;;0.60;99.90;;;;;;4988372;28;20077;-36
2022/12/10 06:42:21;;;;;;;22.92;13.35;;;0.60;99.90;;;;;;4983223;28;20035;-34
2022/12/10 06:44:47;;;;;;;;;;;0.60;99.90;;;;;;4989274;28;20041;-34
2022/12/10 06:47:13;;;;;;;24.52;12.27;;;0.60;99.90;;;;;;4986771;28;19921;-38
2022/12/10 06:49:39;;;;;;;25.08;11.82;;;0.60;99.90;;;;;;4989179;28;20034;-38
2022/12/10 06:52:05;;;;;;;27.80;13.13;;;0.60;99.90;;;;;;4989680;28;20042;-35
2022/12/10 06:54:31;;;;;;;25.95;13.40;;;0.60;99.90;;;;;;4988993;28;20030;-36
2022/12/10 06:56:57;;;;;;;34.50;14.75;;;0.60;99.90;;;;;;4982228;28;20117;-36
2022/12/10 06:59:22;;;;;;;27.45;13.73;;;0.60;99.90;;;;;;4986513;28;20101;-37
2022/12/10 07:01:48;;;;;;;27.08;14.27;;;0.60;99.90;;;;;;4987842;28;20511;-34
2022/12/10 07:04:14;;;;;;;28.48;14.43;;;0.60;99.90;;;;;;4981519;28;20042;-30
2022/12/10 07:06:39;;;;;;;28.85;14.65;;;0.60;99.90;;;;;;4988942;28;20054;-38
2022/12/10 07:09:05;;;;;;;30.58;14.40;;;0.50;99.90;;;;;;4985367;28;20525;-39
2022/12/10 07:11:31;;;;;;;25.38;13.20;;;0.50;99.90;;;;;;4985894;28;20039;-33
2022/12/10 07:13:58;;;;;;;28.88;14.50;;;0.50;99.90;;;;;;4982252;28;20033;-35
2022/12/10 07:16:27;;;;;;;30.42;12.98;;;0.60;99.90;;;;;;4990340;28;20480;-38
2022/12/10 07:18:54;;;;;;;26.88;12.73;;;0.50;99.90;;;;;;4987867;28;20097;-36
2022/12/10 07:21:40;;;;;;;26.40;14.70;;;0.50;99.90;;;;;;4999100;28;20081;-37
2022/12/10 07:24:14;;;;;;;28.83;13.13;;;0.50;99.90;;;;;;4985236;28;20037;-32
2022/12/10 07:26:43;;;;;;;27.17;13.85;;;0.50;99.90;;;;;;4980996;28;20037;-35
2022/12/10 07:29:16;;;;;;;28.15;13.30;;;0.50;99.90;;;;;;4984672;28;20050;-38
2022/12/10 07:31:42;;;;;;;24.40;11.75;;;0.60;99.90;;;;;;4988448;28;20132;-37
2022/12/10 07:34:09;;;;;;;34.05;14.35;;;0.50;99.90;;;;;;4985635;28;20066;-37
2022/12/10 07:36:35;;;;;;;22.92;11.73;;;0.60;99.90;;;;;;4986597;28;20109;-36
2022/12/10 07:39:01;;;;;;;27.52;14.55;;;0.50;99.90;;;;;;4987255;28;20117;-29
2022/12/10 07:41:27;;;;;;;27.95;13.25;;;0.60;99.90;;;;;;4983647;28;20518;-35
2022/12/10 07:43:52;;;;;;;27.75;13.27;;;0.50;99.90;;;;;;4984584;28;20034;-36
2022/12/10 07:46:27;;;;;;;28.50;13.43;;;0.50;99.90;;;;;;4986300;28;20037;-38
2022/12/10 07:48:53;;;;;;;27.15;13.98;;;0.50;99.90;;;;;;4984309;28;20034;-37
2022/12/10 07:51:21;;;;;;;28.73;15.32;;;0.60;99.90;;;;;;4979889;28;20104;-37
2022/12/10 07:53:48;;;;;;;30.70;15.63;;;0.60;99.90;;;;;;4982392;28;20022;-30
2022/12/10 07:56:14;;;;;;;27.45;13.05;;;0.60;99.90;;;;;;4984393;28;20022;-33
2022/12/10 07:58:44;;;;;;;31.80;15.25;;;0.50;99.90;;;;;;4982424;28;20080;-38
2022/12/10 08:01:13;;;;;;;31.75;13.57;;;0.60;99.90;;;;;;4985045;28;20022;-38
2022/12/10 08:03:39;;;;;;;30.48;14.77;;;0.50;99.90;;;;;;4985150;28;20057;-35
2022/12/10 08:06:08;;;;;;;34.17;15.77;;;0.50;99.90;;;;;;4978831;28;20034;-38
2022/12/10 08:08:35;;;;;;;26.10;13.75;;;0.50;99.90;;;;;;4986951;28;20487;-37
2022/12/10 08:11:01;;;;;;;30.25;14.45;;;0.50;99.90;;;;;;4984776;28;20034;-38
2022/12/10 08:13:28;;;;;;;25.42;13.35;;;0.50;99.90;;;;;;4986446;28;20114;-37
2022/12/10 08:15:54;;;;;;;31.25;13.13;;;0.50;99.90;;;;;;4981896;28;20031;-37
2022/12/10 08:18:20;;;;;;;35.95;15.52;;;0.60;99.90;;;;;;4984617;28;20028;-38
2022/12/10 08:20:46;;;;;;;33.75;15.80;;;0.50;99.90;;;;;;4984586;28;20022;-33
2022/12/10 08:23:11;;;;;;;31.77;14.07;;;0.50;99.90;;;;;;4980918;28;20456;-31
2022/12/10 08:25:37;;;;;;;32.47;14.75;;;0.60;99.90;;;;;;4979506;28;20034;-36
2022/12/10 08:28:03;;;;;;;40.05;16.75;;;0.60;99.90;;;;;;4977793;28;20513;-38
2022/12/10 08:30:30;;;;;;;29.15;13.68;;;0.60;99.90;;;;;;4981232;28;20542;-38
2022/12/10 08:32:55;;;;;;;34.05;15.50;;;0.60;99.90;;;;;;4985253;28;20030;-34
2022/12/10 08:35:21;;;;;;;36.45;17.50;;;0.60;99.90;;;;;;4978404;28;20391;-37
2022/12/10 08:37:47;;;;;;;33.05;15.50;;;0.60;99.90;;;;;;4981256;28;20026;-37
2022/12/10 08:40:12;;;;;;;33.53;16.35;;;0.60;99.90;;;;;;4979781;28;20392;-37
2022/12/10 08:42:38;;;;;;;29.77;13.43;;;0.60;99.90;;;;;;4983330;28;20061;-37
2022/12/10 08:45:05;;;;;;;33.50;16.95;;;0.60;99.90;;;;;;4983198;28;20038;-36
2022/12/10 08:47:31;;;;;;;29.95;14.82;;;0.60;99.90;;;;;;4982531;28;20038;-36
2022/12/10 08:49:56;;;;;;;44.55;15.85;;;0.60;99.90;;;;;;4984302;28;20488;-35
2022/12/10 08:52:22;;;;;;;31.48;14.75;;;0.60;99.90;;;;;;4982850;28;20484;-32
2022/12/10 08:54:47;;;;;;;32.17;15.25;;;0.60;99.90;;;;;;4985692;28;20088;-36
2022/12/10 08:57:13;;;;;;;35.42;14.52;;;0.60;99.90;;;;;;4983097;28;20026;-33
2022/12/10 08:59:39;;;;;;;29.85;13.98;;;0.70;99.90;;;;;;4983037;28;20532;-37
2022/12/10 09:02:04;;;;;;;36.55;15.45;;;0.70;99.90;;;;;;4985824;28;20054;-38
2022/12/10 09:04:30;;;;;;;30.58;14.23;;;0.70;99.90;;;;;;4981726;28;20050;-37
2022/12/10 09:06:55;;;;;;;27.67;14.75;;;0.70;99.90;;;;;;4981503;28;20051;-38
2022/12/10 09:09:21;;;;;;;36.20;16.52;;;0.70;99.90;;;;;;4985295;28;20030;-34
2022/12/10 09:11:46;;;;;;;28.08;13.90;;;0.70;99.90;;;;;;4985210;28;20035;-34
2022/12/10 09:14:12;;;;;;;36.78;16.27;;;0.70;99.90;;;;;;4981737;28;20030;-39
2022/12/10 09:16:41;;;;;;;41.70;17.90;;;0.70;99.90;;;;;;4978755;28;20030;-35
2022/12/10 09:19:07;;;;;;;33.55;16.27;;;0.70;99.90;;;;;;4982627;28;20034;-38
2022/12/10 09:21:33;;;;;;;32.80;16.08;;;0.70;99.90;;;;;;5000127;28;20455;-36
2022/12/10 09:23:59;;;;;;;30.80;15.05;;;0.70;99.90;;;;;;4973725;28;20046;-38
2022/12/10 09:26:25;;;;;;;30.27;14.88;;;0.80;99.90;;;;;;4985951;28;20174;-38
2022/12/10 09:28:51;;;;;;;37.55;15.95;;;0.80;99.90;;;;;;4977724;28;20623;-35
2022/12/10 09:31:18;;;;;;;37.00;16.77;;;0.80;99.90;;;;;;4979969;28;20774;-31
2022/12/10 09:33:46;;;;;;;29.45;15.23;;;0.80;99.90;;;;;;4985877;28;20049;-39
2022/12/10 09:36:13;;;;;;;34.70;15.82;;;0.70;99.90;;;;;;4969707;28;20026;-38
2022/12/10 09:38:40;;;;;;;29.40;13.93;;;0.70;99.90;;;;;;4965915;28;20384;-35
2022/12/10 09:41:32;;;;;;;29.10;14.70;;;0.80;99.90;;;;;;4986938;28;20551;-33
2022/12/10 09:44:10;;;;;;;29.92;14.00;;;0.80;99.90;;;;;;4982330;28;20035;-31
2022/12/10 09:46:54;;;;;;;30.60;15.00;;;0.80;99.90;;;;;;4984312;28;20040;-38
2022/12/10 09:49:42;;;;;;;33.40;14.68;;;0.80;99.90;;;;;;4981233;28;20026;-36
2022/12/10 09:52:18;;;;;;;30.55;14.35;;;0.80;99.90;;;;;;4980002;28;20132;-37
2022/12/10 09:54:48;;;;;;;26.08;13.48;;;0.70;99.90;;;;;;4984972;28;20030;-33
2022/12/10 09:57:28;;;;;;;29.02;14.38;;;0.80;99.90;;;;;;4980945;28;20034;-31
2022/12/10 09:59:55;;;;;;;33.92;15.88;;;0.80;99.90;;;;;;4986721;28;20030;-38
2022/12/10 10:02:29;;;;;;;32.53;14.65;;;0.80;99.90;;;;;;4982882;28;20081;-34
2022/12/10 10:05:17;;;;;;;28.65;14.45;;;0.80;99.90;;;;;;4977494;28;20103;-37
2022/12/10 10:07:44;;;;;;;;;;;0.80;99.90;;;;;;4981956;28;20051;-38
2022/12/10 10:10:22;;;;;;;28.45;13.60;;;0.80;99.90;;;;;;4984794;28;20287;-35
2022/12/10 10:13:09;;;;;;;32.90;15.50;;;0.80;99.90;;;;;;4985482;28;21079;-38
2022/12/10 10:15:39;;;;;;;28.92;14.77;;;0.80;99.90;;;;;;4985496;28;20045;-32
2022/12/10 10:18:26;;;;;;;36.25;14.90;;;0.80;99.90;;;;;;4988373;28;20042;-34
2022/12/10 10:20:52;;;;;;;29.63;15.05;;;0.90;99.90;;;;;;4987318;28;20026;-34
2022/12/10 10:23:18;;;;;;;32.75;14.77;;;0.90;99.90;;;;;;4984407;28;20042;-38
2022/12/10 10:25:45;;;;;;;30.02;13.75;;;0.80;99.90;;;;;;4988682;28;20042;-37
2022/12/10 10:28:22;;;;;;;33.67;16.05;;;0.90;99.90;;;;;;4979210;28;20026;-34
2022/12/10 10:30:48;;;;;;;29.13;13.13;;;0.90;99.90;;;;;;4987352;28;20062;-33
2022/12/10 10:33:16;;;;;;;33.97;16.67;;;0.80;99.90;;;;;;4988162;28;20034;-37
2022/12/10 10:36:09;;;;;;;28.75;15.48;;;0.80;99.90;;;;;;4984519;28;20022;-36
2022/12/10 10:38:35;;;;;;;30.20;15.38;;;0.80;99.90;;;;;;4983882;28;20117;-36
2022/12/10 10:41:03;;;;;;;34.45;15.10;;;0.80;99.90;;;;;;4983728;28;20105;-37
2022/12/10 10:43:41;;;;;;;29.88;15.32;;;0.80;99.90;;;;;;4969756;28;20054;-30
2022/12/10 10:46:16;;;;;;;25.25;12.68;;;0.80;99.90;;;;;;4979702;28;20038;-32
2022/12/10 10:48:42;;;;;;;26.65;13.90;;;0.80;99.90;;;;;;4989259;28;20054;-35
2022/12/10 10:51:11;;;;;;;25.70;13.07;;;0.90;99.90;;;;;;4986260;28;20495;-32
2022/12/10 10:53:54;;;;;;;26.50;13.27;;;0.90;99.90;;;;;;4986341;28;20084;-37
2022/12/10 10:56:23;;;;;;;29.55;15.30;;;0.90;99.90;;;;;;4976926;28;20030;-30
2022/12/10 10:59:06;;;;;;;22.23;12.70;;;0.80;99.90;;;;;;4971261;28;20034;-31
2022/12/10 11:01:57;;;;;;;26.27;13.82;;;0.80;99.90;;;;;;4972149;28;20078;-36
2022/12/10 11:04:35;;;;;;;25.88;13.40;;;0.80;99.90;;;;;;4968342;28;20506;-30
2022/12/10 11:07:03;;;;;;;28.02;14.60;;;0.80;99.90;;;;;;4972867;28;20046;-37
2022/12/10 11:09:32;;;;;;;34.55;16.88;;;0.80;99.90;;;;;;4972597;28;20388;-33
2022/12/10 11:12:19;;;;;;;27.25;15.32;;;0.80;99.90;;;;;;4971294;28;20038;-33
2022/12/10 11:14:45;;;;;;;26.90;13.20;;;0.80;99.90;;;;;;4971993;28;20522;-38
2022/12/10 11:17:17;;;;;;;33.42;16.15;;;0.90;99.90;;;;;;4986738;28;20077;-36
2022/12/10 11:19:53;;;;;;;30.85;14.55;;;0.80;99.90;;;;;;4981231;28;20026;-37
2022/12/10 11:22:24;;;;;;;28.17;14.18;;;0.80;99.90;;;;;;4983217;28;20043;-36
2022/12/10 11:24:50;;;;;;;28.05;14.38;;;0.80;99.90;;;;;;4984240;28;20076;-38
2022/12/10 11:27:55;;;;;;;26.95;14.10;;;0.80;99.90;;;;;;4985679;28;20233;-31
2022/12/10 11:30:23;;;;;;;20.08;11.90;;;0.80;99.90;;;;;;4981226;28;20874;-38
2022/12/10 11:32:57;;;;;;;27.58;13.23;;;0.80;99.90;;;;;;4987537;28;20034;-38
2022/12/10 11:36:14;;;;;;;29.95;12.55;;;0.80;99.90;;;;;;4984854;28;20455;-36
2022/12/10 11:38:56;;;;;;;28.42;14.80;;;0.80;99.90;;;;;;4967140;28;20042;-31
2022/12/10 11:41:39;;;;;;;31.70;17.20;;;0.70;99.90;;;;;;4977286;28;20108;-38
2022/12/10 11:44:22;;;;;;;30.60;14.18;;;0.70;99.90;;;;;;4987456;28;20053;-38
2022/12/10 11:47:13;;;;;;;26.58;13.82;;;0.80;99.90;;;;;;4981771;28;20034;-33
2022/12/10 11:49:40;;;;;;;26.63;13.50;;;0.80;99.90;;;;;;4985005;28;20538;-34
2022/12/10 11:52:23;;;;;;;30.40;15.82;;;0.80;99.90;;;;;;4979866;28;20041;-34
2022/12/10 11:55:33;;;;;;;32.47;13.73;;;0.80;99.90;;;;;;4985989;28;20041;-37
2022/12/10 11:58:14;;;;;;;27.10;12.70;;;0.80;99.90;;;;;;4983646;28;20061;-34
2022/12/10 12:01:12;;;;;;;25.92;12.75;;;0.90;99.90;;;;;;4984280;28;20109;-34
2022/12/10 12:03:57;;;;;;;28.48;14.65;;;0.90;99.90;;;;;;4987509;28;20034;-34
2022/12/10 12:06:56;;;;;;;22.45;12.02;;;0.90;99.90;;;;;;4977910;28;20039;-38
2022/12/10 12:09:21;;;;;;;30.00;14.32;;;0.90;99.90;;;;;;4979634;28;20026;-38
2022/12/10 12:11:50;;;;;;;25.92;13.02;;;0.90;99.90;;;;;;4988846;28;20030;-38
2022/12/10 12:14:24;;;;;;;29.50;13.73;;;0.90;99.90;;;;;;4984200;28;20027;-38
2022/12/10 12:17:11;;;;;;;27.52;13.95;;;1.00;99.90;;;;;;4988196;28;20042;-33
2022/12/10 12:19:54;;;;;;;22.60;10.88;;;1.00;99.90;;;;;;4987287;28;20495;-37
2022/12/10 12:22:38;;;;;;;30.50;15.20;;;1.00;99.90;;;;;;4985935;28;20042;-38
2022/12/10 12:25:16;;;;;;;32.10;14.30;;;1.00;99.90;;;;;;4987618;28;20042;-40
2022/12/10 12:27:58;;;;;;;22.63;12.10;;;1.00;99.90;;;;;;4980241;28;20018;-37
2022/12/10 12:30:23;;;;;;;27.02;12.90;;;1.00;99.90;;;;;;4987410;28;20031;-37
2022/12/10 12:32:58;;;;;;;22.05;11.02;;;1.10;99.90;;;;;;4982423;28;20050;-37
2022/12/10 12:35:38;;;;;;;26.58;14.27;;;1.10;99.90;;;;;;4983083;28;20022;-36
2022/12/10 12:38:31;;;;;;;20.05;10.77;;;1.20;99.90;;;;;;4987169;28;20026;-37
2022/12/10 12:41:10;;;;;;;20.02;11.63;;;1.20;99.90;;;;;;4983153;28;20447;-34
2022/12/10 12:43:35;;;;;;;;;;;1.20;99.90;;;;;;4980477;28;20030;-37
2022/12/10 12:46:10;;;;;;;21.42;11.98;;;1.20;99.90;;;;;;4983692;28;19961;-36
2022/12/10 12:48:48;;;;;;;21.25;12.35;;;1.10;99.90;;;;;;4981308;28;20582;-33
2022/12/10 12:51:38;;;;;;;19.85;10.18;;;1.10;99.90;;;;;;4974124;28;20078;-30
2022/12/10 12:54:04;;;;;;;22.95;12.50;;;1.10;99.90;;;;;;4981428;28;20507;-37
2022/12/10 12:56:54;;;;;;;23.10;13.02;;;1.10;99.90;;;;;;4979494;28;20031;-30
2022/12/10 12:59:38;;;;;;;28.02;12.38;;;1.10;99.90;;;;;;4983887;28;20483;-31
2022/12/10 13:02:22;;;;;;;22.55;12.63;;;1.10;99.90;;;;;;4981174;28;20092;-35
2022/12/10 13:04:49;;;;;;;18.17;10.77;;;1.10;99.90;;;;;;4979457;28;20034;-36